Time;durP1;ratioP1;P1;durP2;ratioP2;P2;SDS_P1;SDS_P2;PMS_P1;PMS_P2;Temp;Humidity;BMP_temperature;BMP_pressure;BME280_temperature;BME280_humidity;BME280_pressure;Samples;Min_cycle;Max_cycle;Signal;HPM_P1;HPM_P2
2023/06/02 00:00:25;;;;;;;37.40;10.88;;;11.20;99.90;;;10.01;100.00;101289.25;4973887;28;20034;-76
2023/06/02 00:02:55;;;;;;;34.40;11.05;;;11.20;99.90;;;10.04;100.00;101289.13;4972009;28;20038;-75
2023/06/02 00:05:24;;;;;;;36.90;11.50;;;11.20;99.90;;;10.05;100.00;101299.63;4976381;28;20248;-76
2023/06/02 00:07:51;;;;;;;35.15;11.00;;;11.20;99.90;;;10.06;100.00;101298.72;4974633;28;20134;-76
2023/06/02 00:10:17;;;;;;;51.72;12.95;;;11.20;99.90;;;10.04;100.00;101292.66;4968069;28;20047;-76
2023/06/02 00:12:45;;;;;;;38.85;12.32;;;11.20;99.90;;;10.02;100.00;101296.22;4975515;28;20031;-76
2023/06/02 00:15:11;;;;;;;44.05;13.40;;;11.20;99.90;;;10.04;100.00;101300.56;4976019;28;20034;-75
2023/06/02 00:17:37;;;;;;;42.40;13.90;;;11.20;99.90;;;10.04;100.00;101303.19;4959670;28;20129;-75
2023/06/02 00:20:05;;;;;;;36.83;14.68;;;11.20;99.90;;;10.06;100.00;101308.38;4974783;28;20149;-75
2023/06/02 00:22:37;;;;;;;38.20;13.93;;;11.20;99.90;;;10.09;100.00;101318.81;4965382;28;20034;-75
2023/06/02 00:25:05;;;;;;;38.72;13.77;;;11.30;99.90;;;10.15;100.00;101315.06;4959851;28;20026;-75
2023/06/02 00:27:31;;;;;;;35.58;12.57;;;11.30;99.90;;;10.21;100.00;101320.13;4999033;28;20097;-77
2023/06/02 00:29:57;;;;;;;36.75;13.73;;;11.40;99.90;;;10.24;100.00;101318.25;4975566;28;20039;-75
2023/06/02 00:32:23;;;;;;;36.35;12.40;;;11.40;99.90;;;10.25;100.00;101313.84;4972784;28;20064;-75
2023/06/02 00:34:52;;;;;;;39.40;12.57;;;11.40;99.90;;;10.29;100.00;101315.50;4942395;28;20518;-76
2023/06/02 00:37:18;;;;;;;37.58;12.65;;;11.50;99.90;;;10.34;100.00;101313.53;4985124;28;20043;-75
2023/06/02 00:39:44;;;;;;;36.00;11.80;;;11.50;99.90;;;10.32;100.00;101317.16;4976021;28;20471;-75
2023/06/02 00:42:12;;;;;;;37.17;10.40;;;11.50;99.90;;;10.36;100.00;101321.38;4966652;28;20030;-75
2023/06/02 00:44:38;;;;;;;29.92;9.80;;;11.60;99.90;;;10.42;100.00;101321.16;4990140;28;20049;-76
2023/06/02 00:47:05;;;;;;;35.47;10.48;;;11.60;99.90;;;10.53;100.00;101328.69;4966956;28;20030;-75
2023/06/02 00:49:31;;;;;;;31.52;10.32;;;11.70;99.90;;;10.63;100.00;101332.69;4975671;28;20057;-76
2023/06/02 00:51:57;;;;;;;28.65;8.57;;;11.80;99.90;;;10.71;100.00;101337.66;4973866;28;20034;-76
2023/06/02 00:54:25;;;;;;;40.47;9.18;;;11.90;99.90;;;10.78;100.00;101331.28;4965375;28;20034;-75
2023/06/02 00:56:51;;;;;;;25.92;7.63;;;11.90;99.90;;;10.83;100.00;101337.22;4971159;28;20051;-76
2023/06/02 00:59:19;;;;;;;31.52;8.18;;;12.00;99.90;;;10.87;100.00;101338.81;4987828;28;20038;-76
2023/06/02 01:01:48;;;;;;;29.55;8.05;;;12.00;99.90;;;10.91;100.00;101339.53;4972823;28;20399;-76
2023/06/02 01:04:16;;;;;;;29.42;7.90;;;12.10;99.90;;;10.98;100.00;101330.50;4948467;28;20033;-76
2023/06/02 01:06:43;;;;;;;30.45;7.25;;;12.20;99.90;;;11.08;100.00;101348.53;4949845;28;20030;-76
2023/06/02 01:09:12;;;;;;;24.20;6.90;;;12.30;99.90;;;11.15;100.00;101343.88;4978326;28;20410;-76
2023/06/02 01:11:38;;;;;;;21.05;6.53;;;12.30;99.90;;;11.19;100.00;101355.16;4965377;28;20034;-77
2023/06/02 01:14:04;;;;;;;21.23;6.22;;;12.40;99.90;;;11.28;100.00;101347.75;4977158;28;20050;-76
2023/06/02 01:16:32;;;;;;;30.50;6.28;;;12.40;99.90;;;11.28;100.00;101355.66;4966334;28;20114;-76
2023/06/02 01:19:00;;;;;;;24.50;5.40;;;12.50;99.90;;;11.26;100.00;101354.00;4948374;28;20042;-76
2023/06/02 01:21:34;;;;;;;19.30;5.38;;;12.50;99.90;;;11.25;100.00;101354.91;4962012;28;20054;-76
2023/06/02 01:24:00;;;;;;;27.67;6.05;;;12.50;99.90;;;11.31;100.00;101359.09;4974783;28;20228;-76
2023/06/02 01:26:34;;;;;;;23.10;5.40;;;12.50;99.90;;;11.32;100.00;101360.78;4972612;28;20050;-76
2023/06/02 01:29:04;;;;;;;21.15;4.85;;;12.50;99.90;;;11.33;100.00;101360.75;4972369;28;20045;-76
2023/06/02 01:31:38;;;;;;;14.73;3.60;;;12.50;99.90;;;11.22;100.00;101361.16;4964018;28;20030;-75
2023/06/02 01:34:15;;;;;;;24.83;5.03;;;12.40;99.90;;;11.22;100.00;101365.56;4970410;28;20049;-76
2023/06/02 01:36:43;;;;;;;19.73;5.05;;;12.40;99.90;;;11.19;100.00;101363.94;4968258;28;20108;-76
2023/06/02 01:39:11;;;;;;;15.65;4.18;;;12.30;99.90;;;11.03;100.00;101365.44;4994722;28;20038;-76
2023/06/02 01:41:42;;;;;;;18.95;4.28;;;12.30;99.90;;;10.96;100.00;101371.84;4971762;28;20034;-76
2023/06/02 01:44:09;;;;;;;14.77;4.22;;;12.30;99.90;;;10.98;100.00;101384.06;4970567;28;20119;-77
2023/06/02 01:46:35;;;;;;;21.17;4.78;;;12.20;99.90;;;10.92;100.00;101386.91;4972141;28;20199;-78
2023/06/02 01:49:01;;;;;;;21.45;4.50;;;12.20;99.90;;;10.88;100.00;101385.31;4974374;28;20041;-76
2023/06/02 01:51:26;;;;;;;14.60;3.63;;;12.10;99.90;;;10.86;100.00;101379.22;4962979;28;20031;-76
2023/06/02 01:53:52;;;;;;;20.00;4.55;;;12.20;99.90;;;10.96;100.00;101385.03;4962843;28;20446;-76
2023/06/02 01:56:18;;;;;;;;;;;12.20;99.90;;;11.02;100.00;101392.72;4958958;28;20053;-76
2023/06/02 01:58:46;;;;;;;17.55;4.40;;;12.20;99.90;;;10.99;100.00;101392.81;5002700;28;19917;-76
2023/06/02 02:01:12;;;;;;;15.43;4.05;;;12.20;99.90;;;11.02;100.00;101385.66;4970864;28;20039;-76
2023/06/02 02:03:38;;;;;;;15.63;3.78;;;12.20;99.90;;;10.98;100.00;101383.19;4945409;28;20435;-76
2023/06/02 02:06:04;;;;;;;19.75;4.55;;;12.20;99.90;;;10.94;100.00;101379.81;4972234;28;20039;-75
2023/06/02 02:08:30;;;;;;;19.52;4.28;;;12.20;99.90;;;10.87;100.00;101389.72;4968051;28;20042;-75
2023/06/02 02:10:55;;;;;;;21.58;4.05;;;12.20;99.90;;;10.92;100.00;101392.19;4962596;28;20121;-77
2023/06/02 02:13:21;;;;;;;15.13;3.80;;;12.20;99.90;;;10.96;100.00;101406.97;4964128;28;20040;-75
2023/06/02 02:15:47;;;;;;;16.60;3.95;;;12.20;99.90;;;10.99;100.00;101405.97;4971972;28;20034;-76
2023/06/02 02:18:15;;;;;;;13.55;3.22;;;12.20;99.90;;;10.96;100.00;101414.88;4964169;28;20102;-76
2023/06/02 02:20:41;;;;;;;14.07;3.50;;;12.20;99.90;;;10.98;100.00;101417.44;4970422;28;20043;-76
2023/06/02 02:23:07;;;;;;;13.40;3.30;;;12.20;99.90;;;11.03;100.00;101418.13;4968723;28;20156;-77
2023/06/02 02:25:32;;;;;;;16.15;3.55;;;12.20;99.90;;;11.04;100.00;101419.88;4968538;28;20554;-76
2023/06/02 02:27:58;;;;;;;;;;;12.20;99.90;;;10.96;100.00;101420.13;4967148;28;20041;-76
2023/06/02 02:30:24;;;;;;;13.57;2.78;;;12.20;99.90;;;10.95;100.00;101421.06;4985272;28;19926;-76
2023/06/02 02:32:51;;;;;;;14.93;2.60;;;12.20;99.90;;;10.94;100.00;101423.75;4968517;28;20031;-76
2023/06/02 02:35:17;;;;;;;11.65;2.55;;;12.20;99.90;;;10.97;99.60;101427.16;4946801;28;20499;-75
2023/06/02 02:37:44;;;;;;;10.35;2.45;;;12.20;99.90;;;10.92;97.10;101428.22;4970841;28;20542;-75
2023/06/02 02:40:10;;;;;;;10.90;2.67;;;12.20;99.90;;;10.98;95.79;101431.47;4972196;28;20046;-76
2023/06/02 02:42:36;;;;;;;11.30;2.10;;;12.20;99.90;;;10.90;94.99;101436.16;4969476;28;20030;-76
2023/06/02 02:45:02;;;;;;;11.63;2.63;;;12.20;99.90;;;10.94;93.82;101429.03;4953794;28;20559;-76
2023/06/02 02:47:29;;;;;;;7.50;2.40;;;12.20;99.90;;;10.90;92.76;101445.84;4966208;28;20038;-76
2023/06/02 02:49:54;;;;;;;10.38;1.70;;;12.20;99.90;;;10.88;91.04;101440.63;4973503;28;20039;-75
2023/06/02 02:52:21;;;;;;;7.80;1.98;;;12.10;99.90;;;10.89;89.57;101458.19;4971948;28;20039;-76
2023/06/02 02:54:47;;;;;;;9.60;2.05;;;12.10;99.90;;;10.91;88.32;101455.47;4969827;28;20038;-78
2023/06/02 02:57:13;;;;;;;10.00;1.58;;;12.10;99.90;;;10.93;87.49;101458.91;4974198;28;20043;-76
2023/06/02 02:59:39;;;;;;;6.85;1.75;;;12.10;99.90;;;10.87;86.74;101470.53;4977846;28;20046;-77
2023/06/02 03:02:06;;;;;;;9.32;2.13;;;12.10;99.90;;;10.90;86.77;101472.19;4973041;28;20121;-77
2023/06/02 03:04:34;;;;;;;7.82;2.20;;;12.10;99.90;;;10.94;85.98;101481.72;4971752;28;20027;-76
2023/06/02 03:07:04;;;;;;;15.93;2.53;;;12.10;99.90;;;10.97;85.88;101481.59;4973630;28;20502;-76
2023/06/02 03:09:30;;;;;;;11.52;1.70;;;12.20;99.90;;;10.92;84.67;101481.75;4964526;28;20566;-76
2023/06/02 03:11:57;;;;;;;6.93;1.55;;;12.20;99.90;;;10.97;83.97;101487.75;4973512;28;20117;-76
2023/06/02 03:14:26;;;;;;;9.75;2.17;;;12.10;99.90;;;10.92;83.31;101483.56;5003314;28;20034;-76
2023/06/02 03:16:52;;;;;;;9.30;1.85;;;12.20;99.90;;;10.88;82.77;101481.03;4971343;28;20034;-76
2023/06/02 03:19:18;;;;;;;14.50;2.38;;;12.10;99.90;;;10.91;82.40;101487.09;4963029;28;20483;-76
2023/06/02 03:21:44;;;;;;;12.65;2.20;;;12.10;99.90;;;10.92;81.34;101488.81;4971181;28;20077;-76
2023/06/02 03:24:16;;;;;;;6.28;1.67;;;12.10;99.90;;;10.93;81.08;101491.41;4942207;28;20041;-75
2023/06/02 03:26:44;;;;;;;12.38;1.88;;;12.20;99.90;;;10.99;80.95;101499.09;4986879;28;20034;-75
2023/06/02 03:29:11;;;;;;;8.27;1.45;;;12.20;99.90;;;10.89;79.91;101495.06;4956581;28;20041;-76
2023/06/02 03:31:37;;;;;;;12.77;2.17;;;12.20;99.90;;;11.02;79.88;101506.88;5001318;28;20034;-76
2023/06/02 03:34:04;;;;;;;6.00;1.58;;;12.30;99.90;;;11.09;79.70;101507.50;4970089;28;20041;-76
2023/06/02 03:36:35;;;;;;;8.27;1.98;;;12.30;99.90;;;11.06;79.24;101503.22;4975224;28;20033;-77
2023/06/02 03:39:08;;;;;;;8.15;1.65;;;12.30;99.90;;;11.11;79.04;101508.31;5003135;28;20503;-76
2023/06/02 03:41:35;;;;;;;5.13;1.58;;;12.30;99.90;;;11.14;78.70;101508.19;4963355;28;20034;-76
2023/06/02 03:44:03;;;;;;;8.73;1.95;;;12.30;99.90;;;11.19;78.30;101508.06;4969274;28;20499;-77
2023/06/02 03:46:29;;;;;;;10.75;2.28;;;12.30;99.90;;;11.19;78.48;101527.34;4974512;28;20096;-76
2023/06/02 03:48:55;;;;;;;7.07;2.03;;;12.40;99.90;;;11.24;77.76;101525.41;4948318;28;20025;-76
2023/06/02 03:51:22;;;;;;;9.07;2.60;;;12.40;99.90;;;11.33;77.90;101532.13;4974601;28;20038;-75
2023/06/02 03:53:49;;;;;;;12.07;1.92;;;12.50;99.90;;;11.45;77.87;101541.38;5003098;28;20061;-77
2023/06/02 03:56:15;;;;;;;7.95;1.75;;;12.60;99.90;;;11.64;77.37;101544.16;4973136;28;20186;-77
2023/06/02 03:58:41;;;;;;;6.53;1.83;;;12.80;99.90;;;11.74;76.64;101542.88;4975211;28;20111;-76
2023/06/02 04:01:08;;;;;;;6.90;1.67;;;13.20;99.90;;;12.41;76.17;101559.63;4977182;28;20053;-76
2023/06/02 04:03:36;;;;;;;7.55;1.80;;;13.50;99.90;;;12.50;74.95;101569.81;4980773;28;20034;-75
2023/06/02 04:06:07;;;;;;;12.00;2.10;;;13.90;99.90;;;13.42;73.37;101578.28;4976246;28;20454;-77
2023/06/02 04:08:33;;;;;;;12.05;2.22;;;15.30;99.90;;;15.10;69.34;101597.59;4973355;28;20042;-76
2023/06/02 04:11:00;;;;;;;8.82;2.05;;;16.50;99.90;;;16.24;64.87;101610.03;4976620;28;20062;-77
2023/06/02 04:13:27;;;;;;;6.18;1.70;;;17.50;99.90;;;17.28;61.23;101619.06;4967103;28;20042;-77
2023/06/02 04:15:53;;;;;;;14.45;2.28;;;17.90;99.90;;;16.78;60.01;101610.47;4966402;28;20499;-76
2023/06/02 04:18:19;;;;;;;7.72;1.73;;;18.00;99.90;;;17.17;59.35;101631.25;4965985;28;20058;-76
2023/06/02 04:20:45;;;;;;;8.35;1.90;;;18.20;99.90;;;17.20;58.98;101615.09;4978864;28;20397;-77
2023/06/02 04:23:10;;;;;;;;;;;18.20;99.90;;;17.02;59.13;101622.38;4949139;28;20403;-76
2023/06/02 04:25:36;;;;;;;9.02;2.10;;;17.60;99.90;;;16.20;60.49;101612.88;4960546;28;19921;-76
2023/06/02 04:28:02;;;;;;;;;;;17.10;99.90;;;14.37;62.68;101584.41;4973906;28;20042;-77
2023/06/02 04:30:28;;;;;;;9.32;1.80;;;15.90;99.90;;;14.31;65.06;101592.63;5004491;28;19925;-76
2023/06/02 04:32:56;;;;;;;8.25;1.95;;;15.60;99.90;;;14.14;65.26;101596.94;4977786;28;20122;-76
2023/06/02 04:35:22;;;;;;;9.82;1.90;;;15.40;99.90;;;14.30;65.17;101604.19;4969066;28;20045;-76
2023/06/02 04:37:48;;;;;;;11.95;2.03;;;15.20;99.90;;;14.15;65.40;101603.13;4958739;28;20454;-77
2023/06/02 04:40:14;;;;;;;11.20;1.92;;;15.10;99.90;;;13.96;65.87;101597.84;4932797;28;20035;-76
2023/06/02 04:42:40;;;;;;;8.10;1.63;;;15.00;99.90;;;14.01;65.66;101602.91;4965438;28;20034;-76
2023/06/02 04:45:16;;;;;;;8.02;2.00;;;14.80;99.90;;;13.77;66.33;101613.69;4973428;28;20030;-77
2023/06/02 04:47:42;;;;;;;12.77;2.23;;;15.10;99.90;;;15.18;64.81;101627.19;4976079;28;20458;-76
2023/06/02 04:50:09;;;;;;;6.75;1.70;;;16.60;99.90;;;18.89;56.49;101688.03;4973952;28;20262;-77
2023/06/02 04:52:42;;;;;;;9.77;1.52;;;18.20;99.90;;;19.57;51.73;101679.81;4958052;28;21575;-76
2023/06/02 04:55:10;;;;;;;4.60;1.40;;;18.60;99.90;;;18.39;52.87;101669.00;4981228;28;20061;-77
2023/06/02 04:57:36;;;;;;;5.88;1.90;;;18.90;99.30;;;20.22;50.39;101704.69;4973229;28;20031;-76
2023/06/02 05:00:05;;;;;;;6.50;2.17;;;20.20;98.40;;;22.71;46.21;101737.41;4975304;28;20050;-76
2023/06/02 05:02:31;;;;;;;6.45;1.83;;;21.30;95.60;;;23.53;44.05;101739.53;4962815;28;20651;-76
2023/06/02 05:04:58;;;;;;;6.43;1.88;;;21.90;93.90;;;23.75;42.89;101748.41;4980201;28;20521;-77
2023/06/02 05:07:24;;;;;;;8.23;2.53;;;22.70;93.30;;;25.00;41.32;101759.81;4974925;28;20030;-77
2023/06/02 05:09:50;;;;;;;9.05;2.10;;;23.10;92.00;;;25.04;40.59;101769.31;4966232;28;20054;-76
2023/06/02 05:12:16;;;;;;;7.88;1.77;;;24.00;91.50;;;26.26;38.79;101788.44;4965771;28;20750;-77
2023/06/02 05:14:42;;;;;;;6.75;1.63;;;23.50;90.00;;;24.24;40.76;101763.00;4988636;28;20030;-76
2023/06/02 05:17:08;;;;;;;6.32;1.90;;;23.80;90.30;;;25.18;39.71;101779.69;4956228;28;20866;-76
2023/06/02 05:19:35;;;;;;;7.85;2.00;;;23.60;90.00;;;25.43;39.02;101781.97;4970900;28;20108;-76
2023/06/02 05:22:02;;;;;;;8.35;1.40;;;23.80;90.20;;;25.94;38.69;101789.72;4958560;28;20028;-75
2023/06/02 05:24:29;;;;;;;6.28;1.80;;;24.50;90.20;;;27.13;37.15;101806.03;5007916;28;20674;-76
2023/06/02 05:26:55;;;;;;;9.63;1.90;;;25.20;87.00;;;27.22;35.65;101807.00;4960499;28;20046;-76
2023/06/02 05:29:21;;;;;;;7.50;1.55;;;25.20;83.50;;;26.17;36.17;101800.13;4972449;28;20046;-76
2023/06/02 05:31:46;;;;;;;;;;;25.30;85.60;;;25.56;36.41;101807.63;4971025;28;20372;-76
2023/06/02 05:34:12;;;;;;;8.30;1.95;;;24.70;84.80;;;26.31;36.75;101823.97;4967380;28;19963;-77
2023/06/02 05:36:38;;;;;;;;;;;24.80;87.20;;;26.61;34.29;101846.34;4975388;28;20062;-76
2023/06/02 05:39:04;;;;;;;12.02;1.70;;;24.90;82.40;;;26.64;35.76;101848.72;4973660;28;20387;-76
2023/06/02 05:41:29;;;;;;;;;;;25.00;86.00;;;26.86;34.38;101857.44;4973982;28;20027;-76
2023/06/02 05:43:55;;;;;;;8.52;1.40;;;25.40;81.40;;;27.68;34.12;101869.09;5002012;28;19924;-76
2023/06/02 05:46:24;;;;;;;;;;;25.50;84.40;;;27.50;32.70;101878.06;4967982;28;20423;-76
2023/06/02 05:48:50;;;;;;;5.78;1.67;;;26.00;79.40;;;27.74;33.14;101887.41;4973556;28;20418;-76
2023/06/02 05:51:16;;;;;;;6.95;1.63;;;26.30;80.30;;;28.26;33.38;101892.06;4979242;28;20108;-77
2023/06/02 05:53:41;;;;;;;6.35;1.73;;;25.90;77.70;;;26.77;33.92;101887.03;4954731;28;20042;-77
2023/06/02 05:56:07;;;;;;;;;;;26.00;81.10;;;25.31;34.45;101884.56;4962885;28;20061;-77
2023/06/02 05:58:40;;;;;;;8.27;1.90;;;25.70;80.60;;;27.01;34.55;101896.44;4988990;28;19929;-77
2023/06/02 06:01:06;;;;;;;6.32;1.85;;;25.80;78.80;;;26.90;34.61;101910.16;4964748;28;20035;-76
2023/06/02 06:03:35;;;;;;;4.82;1.45;;;25.50;79.30;;;25.50;35.55;101889.09;4962086;28;20034;-76
2023/06/02 06:06:01;;;;;;;8.05;1.30;;;24.90;79.10;;;24.86;36.47;101885.00;4972444;28;20034;-77
2023/06/02 06:08:28;;;;;;;4.35;1.38;;;23.80;81.20;;;23.25;38.26;101863.78;5000262;28;20589;-77
2023/06/02 06:10:53;;;;;;;6.65;1.58;;;23.80;84.30;;;24.55;38.39;101884.13;4966962;28;20502;-76
2023/06/02 06:13:19;;;;;;;5.80;1.50;;;24.40;82.30;;;25.70;35.94;101897.19;4970526;28;20042;-76
2023/06/02 06:15:47;;;;;;;6.13;1.73;;;25.10;79.30;;;25.82;34.91;101909.53;4953736;28;20040;-77
2023/06/02 06:18:13;;;;;;;4.32;1.40;;;25.70;78.70;;;26.93;34.24;101937.75;5004959;28;20034;-76
2023/06/02 06:20:42;;;;;;;8.82;1.60;;;25.90;76.00;;;26.56;33.79;101945.84;4971129;28;20053;-77
2023/06/02 06:23:08;;;;;;;4.47;1.33;;;26.00;76.20;;;26.71;33.58;101952.47;4958805;28;20126;-74
2023/06/02 06:25:34;;;;;;;2.80;1.15;;;26.00;75.10;;;26.32;33.73;101944.44;4947290;28;20039;-74
2023/06/02 06:28:00;;;;;;;;;;;26.20;76.40;;;27.54;32.01;101968.75;4974158;28;20507;-74
2023/06/02 06:30:26;;;;;;;4.30;1.40;;;26.80;73.90;;;26.51;33.05;101978.66;4974277;28;19917;-75
2023/06/02 06:32:51;;;;;;;5.20;1.30;;;26.70;72.80;;;26.48;32.80;101972.69;4964582;28;20040;-75
2023/06/02 06:35:17;;;;;;;2.50;1.15;;;26.30;70.90;;;25.88;32.99;101967.50;4973644;28;20037;-74
2023/06/02 06:37:43;;;;;;;7.35;1.40;;;26.00;72.20;;;25.79;33.37;101967.34;4973115;28;20049;-74
2023/06/02 06:40:10;;;;;;;11.50;1.20;;;25.90;71.40;;;25.90;33.14;101970.94;4973429;28;20053;-75
2023/06/02 06:42:35;;;;;;;4.75;1.30;;;26.50;73.50;;;27.26;32.17;101985.97;4974208;28;20657;-76
2023/06/02 06:45:01;;;;;;;4.80;1.23;;;26.60;68.00;;;26.53;30.68;101989.34;4972774;28;20124;-76
2023/06/02 06:47:27;;;;;;;;;;;26.50;70.10;;;26.18;31.29;101985.41;4972013;28;20027;-75
2023/06/02 06:49:54;;;;;;;8.25;1.67;;;25.90;70.70;;;25.40;33.34;101968.25;4998678;28;20534;-75
2023/06/02 06:52:20;;;;;;;3.13;0.77;;;26.20;68.60;;;26.43;31.02;101994.72;4967827;28;20038;-75
2023/06/02 06:54:46;;;;;;;2.65;1.20;;;25.90;66.90;;;25.10;31.96;101978.94;4956037;28;20121;-76
2023/06/02 06:57:12;;;;;;;7.07;1.40;;;26.10;68.00;;;25.67;31.63;101991.88;4973615;28;20039;-75
2023/06/02 06:59:42;;;;;;;4.35;1.25;;;26.40;69.20;;;26.55;31.57;102001.69;4970665;28;20119;-75
2023/06/02 07:02:08;;;;;;;4.38;1.00;;;26.90;69.80;;;27.26;30.99;102010.31;4995497;28;20048;-76
2023/06/02 07:04:34;;;;;;;4.70;1.20;;;26.80;66.00;;;26.31;30.62;102006.72;4975227;28;20055;-74
2023/06/02 07:07:00;;;;;;;2.55;0.98;;;27.00;67.50;;;26.25;30.69;102007.28;4956736;28;20045;-76
2023/06/02 07:09:25;;;;;;;2.50;1.00;;;26.50;67.50;;;25.85;31.55;102000.97;4971507;28;20047;-75
2023/06/02 07:11:51;;;;;;;4.03;1.00;;;26.00;65.50;;;24.98;31.28;102007.81;4970594;28;20404;-74
2023/06/02 07:14:17;;;;;;;4.28;1.15;;;25.80;67.50;;;25.14;32.00;102017.22;4976044;28;20053;-75
2023/06/02 07:16:48;;;;;;;5.07;0.95;;;25.50;66.30;;;24.70;31.27;102020.13;4968426;28;20030;-75
2023/06/02 07:19:14;;;;;;;5.05;1.20;;;24.90;64.50;;;23.47;32.13;102007.97;4957173;28;20042;-74
2023/06/02 07:21:40;;;;;;;4.18;1.00;;;24.70;66.80;;;24.09;32.29;102012.72;4937255;28;20039;-75
2023/06/02 07:24:06;;;;;;;4.80;1.05;;;25.10;61.30;;;24.65;29.01;102043.94;4975284;28;20118;-75
2023/06/02 07:26:31;;;;;;;3.78;0.85;;;24.80;60.70;;;23.37;28.96;102034.75;4981560;28;20061;-76
2023/06/02 07:28:57;;;;;;;;;;;24.60;62.00;;;23.46;29.00;102033.16;4970132;28;20380;-76
2023/06/02 07:31:23;;;;;;;2.55;0.73;;;24.30;62.60;;;23.37;30.45;102040.13;5006492;28;20432;-75
2023/06/02 07:33:49;;;;;;;7.35;0.60;;;23.40;60.80;;;21.87;30.18;102023.81;4973494;28;20077;-77
2023/06/02 07:36:15;;;;;;;2.25;0.90;;;23.30;60.90;;;22.15;30.03;102028.97;4976815;28;20046;-75
2023/06/02 07:38:40;;;;;;;2.33;0.77;;;23.60;63.80;;;23.31;30.13;102052.22;4981177;28;20038;-75
2023/06/02 07:41:06;;;;;;;6.95;0.88;;;23.90;62.30;;;23.09;29.29;102062.97;4953910;28;20042;-75
2023/06/02 07:43:32;;;;;;;;;;;23.70;64.30;;;23.18;29.07;102066.75;4959224;28;20026;-75
2023/06/02 07:45:58;;;;;;;5.63;1.20;;;23.90;64.40;;;23.42;30.33;102067.50;4972334;28;19921;-76
2023/06/02 07:48:24;;;;;;;;;;;24.00;66.40;;;22.76;30.52;102055.66;4968883;28;20485;-75
2023/06/02 07:50:50;;;;;;;3.63;0.65;;;23.60;66.40;;;22.53;31.60;102047.56;4973216;28;19918;-75
2023/06/02 07:53:15;;;;;;;;;;;23.60;67.20;;;21.50;31.47;102061.34;4974080;28;20116;-75
2023/06/02 07:55:41;;;;;;;5.15;0.93;;;22.70;65.80;;;21.33;32.69;102037.56;5007206;28;19924;-76
2023/06/02 07:58:08;;;;;;;;;;;22.60;67.80;;;21.27;32.58;102032.66;4955195;28;20499;-75
2023/06/02 08:00:34;;;;;;;4.15;1.00;;;22.40;68.60;;;21.76;32.70;102034.50;4975222;28;19917;-74
2023/06/02 08:03:00;;;;;;;;;;;22.40;69.10;;;22.21;31.45;102049.97;4970064;28;20034;-76
2023/06/02 08:05:26;;;;;;;9.77;1.33;;;22.80;66.20;;;22.34;31.74;102055.31;4935719;28;19934;-75
2023/06/02 08:07:52;;;;;;;5.35;1.15;;;23.10;66.30;;;23.14;31.25;102082.25;4983195;28;20117;-76
2023/06/02 08:10:18;;;;;;;;;;;23.20;68.50;;;22.47;30.75;102056.09;4974929;28;20038;-75
2023/06/02 08:12:44;;;;;;;2.72;0.80;;;23.00;65.70;;;22.77;31.54;102052.03;5007183;28;19910;-74
2023/06/02 08:15:10;;;;;;;2.88;0.85;;;21.80;62.50;;;19.94;32.02;102038.09;4977623;28;21203;-76
2023/06/02 08:17:36;;;;;;;5.20;0.82;;;21.30;63.70;;;20.26;31.98;102035.97;4968563;28;20326;-76
2023/06/02 08:20:06;;;;;;;4.53;0.88;;;21.10;66.40;;;19.70;32.89;102035.22;4949560;28;20063;-73
2023/06/02 08:22:33;;;;;;;9.30;1.50;;;20.50;69.70;;;19.77;34.76;102025.00;5005982;28;20033;-75
2023/06/02 08:25:00;;;;;;;6.55;1.05;;;20.10;71.10;;;18.87;36.01;102010.16;4977475;28;20038;-75
2023/06/02 08:27:27;;;;;;;4.60;1.17;;;20.00;72.00;;;19.45;35.45;102007.34;4977008;28;20049;-75
2023/06/02 08:29:59;;;;;;;1.67;0.63;;;19.60;70.40;;;18.62;35.26;101999.13;4975477;28;20070;-74
2023/06/02 08:32:26;;;;;;;2.47;0.70;;;19.60;71.60;;;18.92;35.79;102002.72;4973765;28;20035;-76
2023/06/02 08:34:51;;;;;;;6.03;0.60;;;19.50;70.90;;;18.37;36.31;102004.22;4957509;28;20089;-76
2023/06/02 08:37:20;;;;;;;2.75;0.90;;;19.20;74.80;;;18.00;37.98;101985.91;4968824;28;20042;-74
2023/06/02 08:39:47;;;;;;;2.75;0.60;;;18.80;71.90;;;17.40;36.96;101972.41;4975165;28;20050;-73
2023/06/02 08:42:15;;;;;;;4.47;0.80;;;18.70;75.40;;;17.71;38.11;101976.00;4961263;28;20043;-74
2023/06/02 08:44:44;;;;;;;4.05;0.90;;;18.60;73.40;;;17.36;37.26;101971.72;4972594;28;20100;-75
2023/06/02 08:47:12;;;;;;;5.78;0.90;;;18.20;71.60;;;16.92;37.00;101977.69;4955966;28;20046;-74
2023/06/02 08:49:48;;;;;;;2.30;0.60;;;18.30;71.80;;;16.81;36.56;101983.56;4962070;28;20026;-75
2023/06/02 08:52:27;;;;;;;3.45;0.70;;;18.40;71.00;;;17.54;36.15;102000.97;4994387;28;20030;-74
2023/06/02 08:54:55;;;;;;;3.17;0.85;;;18.20;70.90;;;16.95;36.11;101996.16;4995948;28;20061;-75
2023/06/02 08:57:21;;;;;;;1.50;0.70;;;18.30;72.90;;;17.17;36.97;101997.63;4986228;28;20066;-77
2023/06/02 08:59:47;;;;;;;3.83;0.80;;;18.40;72.60;;;17.52;36.66;102003.69;4975077;28;20031;-75
2023/06/02 09:02:16;;;;;;;9.30;0.75;;;18.40;69.20;;;17.18;34.70;102004.69;5004168;28;20530;-75
2023/06/02 09:04:45;;;;;;;5.78;0.90;;;18.20;71.80;;;16.91;36.42;101997.25;4967966;28;20045;-74
2023/06/02 09:07:19;;;;;;;2.22;0.63;;;17.90;74.70;;;16.65;38.43;101971.13;4973511;28;20030;-75
2023/06/02 09:09:55;;;;;;;2.33;0.68;;;18.10;76.10;;;17.10;38.14;101985.59;4974995;28;20037;-74
2023/06/02 09:12:25;;;;;;;0.65;0.43;;;18.20;69.70;;;17.15;35.38;102000.41;4972648;28;20038;-75
2023/06/02 09:15:10;;;;;;;4.05;0.38;;;18.10;68.50;;;16.85;34.02;102007.38;4968987;28;20046;-75
2023/06/02 09:17:37;;;;;;;1.65;0.50;;;18.10;69.10;;;16.92;34.76;102006.09;4963319;28;20655;-76
2023/06/02 09:20:13;;;;;;;1.17;0.50;;;17.90;71.30;;;16.88;36.12;102013.34;4972221;28;20110;-75
2023/06/02 09:22:58;;;;;;;3.13;0.63;;;17.90;70.50;;;16.90;34.80;102008.81;4971646;28;20041;-75
2023/06/02 09:25:29;;;;;;;4.47;0.70;;;17.90;66.30;;;16.89;33.78;102028.41;4944098;28;20445;-75
2023/06/02 09:28:02;;;;;;;1.38;0.70;;;17.60;67.40;;;16.25;34.71;102008.59;4962578;28;20055;-76
2023/06/02 09:30:29;;;;;;;2.17;0.50;;;17.80;68.30;;;16.66;34.47;102018.91;4973290;28;20038;-76
2023/06/02 09:32:58;;;;;;;3.10;0.80;;;17.50;69.70;;;16.30;35.85;102011.00;4971176;28;20511;-76
2023/06/02 09:35:45;;;;;;;8.20;0.80;;;17.60;72.10;;;16.66;36.72;102015.41;4972805;28;20041;-74
2023/06/02 09:38:14;;;;;;;3.28;1.20;;;17.80;70.70;;;16.95;35.68;102022.75;4961328;28;20130;-75
2023/06/02 09:40:44;;;;;;;6.60;0.60;;;17.90;72.30;;;17.15;36.41;102026.16;4966305;28;20448;-75
2023/06/02 09:43:15;;;;;;;2.40;0.80;;;18.00;72.30;;;16.96;36.18;102027.13;4975942;28;20035;-75
2023/06/02 09:46:01;;;;;;;1.08;0.52;;;18.10;69.80;;;17.21;34.97;102042.66;4973841;28;20042;-74
2023/06/02 09:48:27;;;;;;;3.38;0.80;;;18.10;69.90;;;17.06;35.68;102042.59;4968380;28;20049;-77
2023/06/02 09:50:59;;;;;;;3.50;0.65;;;18.20;71.90;;;17.00;35.53;102049.13;4973533;28;20467;-76
2023/06/02 09:53:26;;;;;;;5.13;0.73;;;17.80;70.70;;;16.50;36.42;102028.59;4949548;28;20034;-76
2023/06/02 09:55:54;;;;;;;4.15;0.70;;;18.00;74.10;;;17.12;37.12;102043.13;4972740;28;20073;-76
2023/06/02 09:58:20;;;;;;;2.20;0.70;;;18.00;72.00;;;17.10;36.44;102041.50;4974421;28;20109;-76
2023/06/02 10:00:46;;;;;;;3.70;0.70;;;18.10;71.50;;;17.19;36.16;102049.84;4968561;28;20485;-76
2023/06/02 10:03:16;;;;;;;3.22;0.80;;;17.90;72.60;;;16.57;36.75;102033.53;4971007;28;20033;-76
2023/06/02 10:06:05;;;;;;;1.42;0.70;;;18.00;75.60;;;17.15;37.94;102042.97;4973018;28;20096;-75
2023/06/02 10:08:43;;;;;;;4.68;1.13;;;18.10;75.60;;;16.86;38.01;102035.66;4985662;28;20045;-76
2023/06/02 10:11:49;;;;;;;3.15;0.80;;;18.10;74.30;;;17.16;37.57;102034.03;5002900;28;20384;-75
2023/06/02 10:14:47;;;;;;;3.17;0.73;;;18.20;74.50;;;17.27;37.76;102025.47;4977785;28;20027;-76